createdAt,value
2022-12-26T00:01:06.765Z,100807.28
2022-12-26T00:03:33.927Z,100802.56
2022-12-26T00:06:01.527Z,100797.53
2022-12-26T00:08:28.562Z,100805.94
2022-12-26T00:10:55.645Z,100806.25
2022-12-26T00:13:40.262Z,100808.69
2022-12-26T00:16:12.312Z,100794.84
2022-12-26T00:18:40.310Z,100801.62
2022-12-26T00:21:09.055Z,100813.84
2022-12-26T00:23:36.776Z,100811.41
2022-12-26T00:26:15.598Z,100809.63
2022-12-26T00:28:43.654Z,100805.31
2022-12-26T00:31:18.870Z,100816.72
2022-12-26T00:33:46.499Z,100818.34
2022-12-26T00:36:16.550Z,100804.72
2022-12-26T00:38:44.694Z,100807.28
2022-12-26T00:41:13.707Z,100794.91
2022-12-26T00:43:41.680Z,100803.75
2022-12-26T00:46:09.111Z,100791.41
2022-12-26T00:48:36.184Z,100792.97
2022-12-26T00:51:03.351Z,100800.34
2022-12-26T00:53:30.647Z,100800.78
2022-12-26T00:55:57.961Z,100805.12
2022-12-26T00:58:27.466Z,100806.13
2022-12-26T01:00:55.324Z,100807.13
2022-12-26T01:03:22.740Z,100802.44
2022-12-26T01:05:51.680Z,100809.03
2022-12-26T01:08:24.099Z,100803.66
2022-12-26T01:10:52.433Z,100807.16
2022-12-26T01:13:20.043Z,100817.66
2022-12-26T01:15:55.367Z,100821.56
2022-12-26T01:18:22.522Z,100816.87
2022-12-26T01:20:50.191Z,100817.91
2022-12-26T01:23:17.699Z,100817.03
2022-12-26T01:26:15.156Z,100813.16
2022-12-26T01:28:31.930Z,100816.87
2022-12-26T01:31:11.566Z,100820.41
2022-12-26T01:33:39.211Z,100818.62
2022-12-26T01:36:07.597Z,100824.78
2022-12-26T01:38:35.214Z,100816.44
2022-12-26T01:41:28.346Z,100806.22
2022-12-26T01:44:02.673Z,100810.28
2022-12-26T01:46:44.137Z,100810.75
2022-12-26T01:49:29.452Z,100802.28
2022-12-26T01:52:07.313Z,100809.00
2022-12-26T01:54:42.340Z,100800.41
2022-12-26T01:57:21.251Z,100797.13
2022-12-26T01:59:50.072Z,100794.41
2022-12-26T02:02:19.245Z,100796.16
2022-12-26T02:05:07.841Z,100792.56
2022-12-26T02:07:37.641Z,100785.87
2022-12-26T02:10:07.901Z,100785.94
2022-12-26T02:12:38.685Z,100792.44
2022-12-26T02:15:17.729Z,100785.28
2022-12-26T02:17:45.299Z,100789.22
2022-12-26T02:20:28.979Z,100790.91
2022-12-26T02:23:04.919Z,100782.16
2022-12-26T02:25:55.753Z,100772.31
2022-12-26T02:28:35.722Z,100768.53
2022-12-26T02:31:21.870Z,100765.69
2022-12-26T02:33:51.524Z,100778.94
2022-12-26T02:36:39.820Z,100773.94
2022-12-26T02:39:47.697Z,100783.13
2022-12-26T02:42:29.042Z,100785.31
2022-12-26T02:45:22.647Z,100786.56
2022-12-26T02:48:28.088Z,100783.09
2022-12-26T02:51:23.198Z,100777.25
2022-12-26T02:54:20.671Z,100767.09
2022-12-26T02:57:12.645Z,100772.28
2022-12-26T03:00:30.408Z,100777.66
2022-12-26T03:03:22.274Z,100773.00
2022-12-26T03:06:12.441Z,100780.25
2022-12-26T03:09:11.681Z,100776.44
2022-12-26T03:12:00.454Z,100772.63
2022-12-26T03:14:31.089Z,100775.66
2022-12-26T03:17:21.602Z,100772.34
2022-12-26T03:20:03.489Z,100759.47
2022-12-26T03:22:58.469Z,100756.84
2022-12-26T03:25:43.897Z,100755.37
2022-12-26T03:28:14.024Z,100758.28
2022-12-26T03:30:50.932Z,100739.69
2022-12-26T03:33:39.716Z,100754.34
2022-12-26T03:36:08.669Z,100755.34
2022-12-26T03:38:51.570Z,100769.50
2022-12-26T03:41:55.481Z,100757.88
2022-12-26T03:45:01.089Z,100769.94
2022-12-26T03:48:15.170Z,100759.59
2022-12-26T03:51:06.334Z,100778.31
2022-12-26T03:54:15.000Z,100785.50
2022-12-26T03:57:13.119Z,100781.31
2022-12-26T04:00:18.184Z,100785.22
2022-12-26T04:03:07.093Z,100786.13
2022-12-26T04:05:56.216Z,100794.94
2022-12-26T04:08:48.885Z,100785.94
2022-12-26T04:11:38.163Z,100791.56
2022-12-26T04:14:39.186Z,100800.59
2022-12-26T04:17:50.031Z,100804.59
2022-12-26T04:20:33.863Z,100805.78
2022-12-26T04:23:47.461Z,100811.25
2022-12-26T04:27:14.170Z,100813.84
2022-12-26T04:30:00.586Z,100819.50
2022-12-26T04:33:02.819Z,100829.56
2022-12-26T04:35:54.040Z,100824.44
2022-12-26T04:38:46.171Z,100822.28
2022-12-26T04:41:33.835Z,100828.41
2022-12-26T04:44:08.684Z,100831.00
2022-12-26T04:46:39.309Z,100823.97
2022-12-26T04:49:27.020Z,100814.69
2022-12-26T04:51:56.511Z,100818.94
2022-12-26T04:54:24.185Z,100823.09
2022-12-26T04:56:51.200Z,100820.72
2022-12-26T04:59:18.807Z,100823.78
2022-12-26T05:02:04.327Z,100828.41
2022-12-26T05:04:49.722Z,100834.97
2022-12-26T05:07:49.216Z,100843.25
2022-12-26T05:10:21.289Z,100843.56
2022-12-26T05:12:48.555Z,100850.22
2022-12-26T05:15:16.523Z,100850.75
2022-12-26T05:18:02.812Z,100848.22
2022-12-26T05:20:51.621Z,100847.56
2022-12-26T05:23:39.874Z,100859.34
2022-12-26T05:26:31.284Z,100858.97
2022-12-26T05:29:00.571Z,100852.00
2022-12-26T05:31:34.607Z,100848.03
2022-12-26T05:34:11.071Z,100838.62
2022-12-26T05:36:41.765Z,100829.84
2022-12-26T05:39:09.417Z,100830.66
2022-12-26T05:41:38.357Z,100826.78
2022-12-26T05:44:05.916Z,100822.97
2022-12-26T05:46:33.854Z,100825.41
2022-12-26T05:49:03.282Z,100823.94
2022-12-26T05:51:30.289Z,100820.88
2022-12-26T05:53:57.286Z,100825.66
2022-12-26T05:56:24.907Z,100821.66
2022-12-26T05:58:56.476Z,100820.28
2022-12-26T06:01:26.124Z,100818.41
2022-12-26T06:03:57.429Z,100809.50
2022-12-26T06:06:27.207Z,100813.78
2022-12-26T06:08:55.685Z,100813.72
2022-12-26T06:11:23.648Z,100816.28
2022-12-26T06:13:50.566Z,100817.41
2022-12-26T06:16:19.028Z,100812.56
2022-12-26T06:18:47.046Z,100809.25
2022-12-26T06:21:19.635Z,100805.47
2022-12-26T06:23:47.273Z,100809.34
2022-12-26T06:26:14.648Z,100802.44
2022-12-26T06:28:43.707Z,100804.50
2022-12-26T06:31:21.304Z,100809.28
2022-12-26T06:33:50.953Z,100812.44
2022-12-26T06:36:20.153Z,100826.31
2022-12-26T06:38:47.125Z,100823.19
2022-12-26T06:41:17.787Z,100821.62
2022-12-26T06:43:45.577Z,100827.56
2022-12-26T06:46:18.454Z,100831.91
2022-12-26T06:48:46.137Z,100827.47
2022-12-26T06:51:22.130Z,100830.19
2022-12-26T06:53:50.815Z,100837.59
2022-12-26T06:56:26.173Z,100839.97
2022-12-26T06:58:58.573Z,100828.97
2022-12-26T07:01:28.129Z,100832.84
2022-12-26T07:03:55.932Z,100830.16
2022-12-26T07:06:30.528Z,100822.56
2022-12-26T07:09:03.636Z,100824.38
2022-12-26T07:11:35.878Z,100817.59
2022-12-26T07:14:03.587Z,100828.22
2022-12-26T07:16:31.171Z,100816.09
2022-12-26T07:18:58.988Z,100818.81
2022-12-26T07:21:26.750Z,100813.75
2022-12-26T07:23:54.749Z,100815.31
2022-12-26T07:26:22.869Z,100816.31
2022-12-26T07:28:53.618Z,100813.34
2022-12-26T07:31:21.641Z,100816.31
2022-12-26T07:33:55.491Z,100815.56
2022-12-26T07:36:23.786Z,100817.50
2022-12-26T07:38:51.531Z,100826.28
2022-12-26T07:41:39.014Z,100821.88
2022-12-26T07:44:06.761Z,100818.38
2022-12-26T07:46:34.468Z,100821.00
2022-12-26T07:49:02.091Z,100828.00
2022-12-26T07:51:29.414Z,100826.25
2022-12-26T07:53:56.708Z,100828.88
2022-12-26T07:56:23.631Z,100834.78
2022-12-26T07:58:54.147Z,100840.91
2022-12-26T08:01:22.349Z,100843.22
2022-12-26T08:03:50.448Z,100840.87
2022-12-26T08:06:19.096Z,100842.53
2022-12-26T08:08:51.181Z,100847.78
2022-12-26T08:11:22.551Z,100858.41
2022-12-26T08:13:50.141Z,100848.88
2022-12-26T08:16:17.971Z,100855.81
2022-12-26T08:18:45.442Z,100854.72
2022-12-26T08:21:13.189Z,100863.44
2022-12-26T08:23:40.712Z,100866.16
2022-12-26T08:26:09.836Z,100874.28
2022-12-26T08:28:37.302Z,100877.66
2022-12-26T08:31:08.960Z,100884.75
2022-12-26T08:33:36.163Z,100881.31
2022-12-26T08:36:04.666Z,100888.50
2022-12-26T08:38:33.740Z,100888.41
2022-12-26T08:41:02.205Z,100889.38
2022-12-26T08:43:45.413Z,100905.88
2022-12-26T08:46:16.683Z,100907.56
2022-12-26T08:48:45.221Z,100906.78
2022-12-26T08:51:15.612Z,100901.34
2022-12-26T08:53:42.808Z,100905.75
2022-12-26T08:56:14.212Z,100906.69
2022-12-26T08:58:44.600Z,100905.44
2022-12-26T09:01:27.459Z,100904.59
2022-12-26T09:03:56.502Z,100903.00
2022-12-26T09:06:24.322Z,100906.41
2022-12-26T09:08:52.273Z,100908.78
2022-12-26T09:11:27.260Z,100908.91
2022-12-26T09:13:55.678Z,100905.38
2022-12-26T09:16:26.377Z,100902.81
2022-12-26T09:18:59.444Z,100902.91
2022-12-26T09:21:29.199Z,100900.59
2022-12-26T09:24:00.864Z,100897.94
2022-12-26T09:26:29.316Z,100894.25
2022-12-26T09:28:57.259Z,100887.56
2022-12-26T09:31:27.225Z,100901.41
2022-12-26T09:33:54.265Z,100904.25
2022-12-26T09:36:24.448Z,100901.59
2022-12-26T09:38:51.823Z,100905.97
2022-12-26T09:41:42.407Z,100910.38
2022-12-26T09:44:47.809Z,100903.31
2022-12-26T09:47:35.158Z,100904.28
2022-12-26T09:50:05.368Z,100891.94
2022-12-26T09:52:46.654Z,100892.81
2022-12-26T09:55:36.994Z,100887.38
2022-12-26T09:58:24.709Z,100889.78
2022-12-26T10:01:01.404Z,100880.91
2022-12-26T10:03:29.148Z,100876.72
2022-12-26T10:06:02.231Z,100862.38
2022-12-26T10:08:49.352Z,100862.06
2022-12-26T10:11:32.705Z,100850.53
2022-12-26T10:14:04.145Z,100847.56
2022-12-26T10:16:33.953Z,100841.16
2022-12-26T10:19:10.202Z,100851.25
2022-12-26T10:21:53.369Z,100847.37
2022-12-26T10:24:26.343Z,100841.63
2022-12-26T10:27:00.664Z,100855.62
2022-12-26T10:29:34.059Z,100864.78
2022-12-26T10:32:05.479Z,100871.72
2022-12-26T10:34:47.748Z,100874.94
2022-12-26T10:37:24.488Z,100870.44
2022-12-26T10:40:09.959Z,100868.47
2022-12-26T10:42:38.308Z,100871.88
2022-12-26T10:45:17.635Z,100871.37
2022-12-26T10:47:47.270Z,100869.34
2022-12-26T10:50:27.698Z,100861.16
2022-12-26T10:52:56.022Z,100872.50
2022-12-26T10:55:31.789Z,100857.87
2022-12-26T10:58:15.416Z,100846.06
2022-12-26T11:00:42.551Z,100848.00
2022-12-26T11:03:15.392Z,100845.94
2022-12-26T11:06:09.145Z,100832.91
2022-12-26T11:08:47.804Z,100820.91
2022-12-26T11:11:25.000Z,100815.28
2022-12-26T11:14:02.098Z,100812.47
2022-12-26T11:16:32.581Z,100800.47
2022-12-26T11:18:59.809Z,100793.50
2022-12-26T11:21:32.458Z,100787.00
2022-12-26T11:24:18.875Z,100793.44
2022-12-26T11:26:46.811Z,100785.87
2022-12-26T11:29:26.502Z,100799.94
2022-12-26T11:32:02.935Z,100784.72
2022-12-26T11:34:34.689Z,100784.59
2022-12-26T11:37:04.208Z,100775.56
2022-12-26T11:39:35.275Z,100778.72
2022-12-26T11:42:10.377Z,100783.84
2022-12-26T11:44:41.361Z,100777.59
2022-12-26T11:47:13.345Z,100776.72
2022-12-26T11:49:50.879Z,100776.84
2022-12-26T11:52:53.166Z,100773.81
2022-12-26T11:55:23.003Z,100774.78
2022-12-26T11:58:09.106Z,100758.72
2022-12-26T12:00:37.434Z,100757.12
2022-12-26T12:03:13.071Z,100760.50
2022-12-26T12:06:07.851Z,100761.66
2022-12-26T12:09:06.318Z,100759.72
2022-12-26T12:11:47.845Z,100756.19
2022-12-26T12:14:52.670Z,100764.34
2022-12-26T12:17:43.281Z,100763.41
2022-12-26T12:20:10.211Z,100761.12
2022-12-26T12:22:52.338Z,100763.56
2022-12-26T12:25:54.393Z,100771.69
2022-12-26T12:29:01.416Z,100769.50
2022-12-26T12:31:28.365Z,100767.75
2022-12-26T12:34:18.335Z,100754.88
2022-12-26T12:37:27.651Z,100751.03
2022-12-26T12:40:34.134Z,100744.81
2022-12-26T12:43:20.226Z,100742.81
2022-12-26T12:46:07.069Z,100747.00
2022-12-26T12:49:03.908Z,100741.50
2022-12-26T12:51:44.502Z,100740.03
2022-12-26T12:54:45.756Z,100739.56
2022-12-26T12:57:20.143Z,100729.66
2022-12-26T13:00:13.946Z,100713.28
2022-12-26T13:03:01.791Z,100717.44
2022-12-26T13:06:03.885Z,100704.56
2022-12-26T13:09:14.226Z,100695.44
2022-12-26T13:11:56.715Z,100685.06
2022-12-26T13:14:37.223Z,100684.06
2022-12-26T13:17:13.326Z,100684.09
2022-12-26T13:20:06.341Z,100682.66
2022-12-26T13:23:04.550Z,100676.97
2022-12-26T13:25:37.344Z,100681.19
2022-12-26T13:28:12.128Z,100687.87
2022-12-26T13:30:39.891Z,100692.69
2022-12-26T13:33:07.119Z,100692.44
2022-12-26T13:35:55.465Z,100690.81
2022-12-26T13:38:24.667Z,100688.69
2022-12-26T13:41:20.539Z,100677.75
2022-12-26T13:44:02.286Z,100674.53
2022-12-26T13:46:53.783Z,100673.91
2022-12-26T13:49:37.391Z,100683.94
2022-12-26T13:52:19.439Z,100691.78
2022-12-26T13:54:50.896Z,100700.34
2022-12-26T13:57:36.859Z,100703.34
2022-12-26T14:00:07.198Z,100704.34
2022-12-26T14:03:18.087Z,100698.06
2022-12-26T14:05:40.032Z,100689.00
2022-12-26T14:08:10.517Z,100691.88
2022-12-26T14:10:55.988Z,100695.06
2022-12-26T14:14:00.054Z,100706.31
2022-12-26T14:16:45.602Z,100705.00
2022-12-26T14:19:37.460Z,100707.13
2022-12-26T14:22:26.055Z,100708.97
2022-12-26T14:25:31.509Z,100707.97
2022-12-26T14:28:22.167Z,100709.75
2022-12-26T14:30:55.238Z,100694.00
2022-12-26T14:33:54.513Z,100700.63
2022-12-26T14:36:27.357Z,100700.41
2022-12-26T14:39:10.463Z,100691.72
2022-12-26T14:42:25.728Z,100694.84
2022-12-26T14:44:58.123Z,100701.09
2022-12-26T14:47:47.220Z,100711.87
2022-12-26T14:50:32.743Z,100704.47
2022-12-26T14:53:30.584Z,100703.41
2022-12-26T14:56:14.442Z,100695.41
2022-12-26T14:58:45.847Z,100706.00
2022-12-26T15:01:17.442Z,100712.13
2022-12-26T15:04:07.641Z,100724.53
2022-12-26T15:06:46.618Z,100727.00
2022-12-26T15:09:38.129Z,100722.75
2022-12-26T15:12:05.950Z,100726.25
2022-12-26T15:14:58.041Z,100718.78
2022-12-26T15:17:51.152Z,100715.56
2022-12-26T15:20:37.017Z,100716.38
2022-12-26T15:23:19.462Z,100724.13
2022-12-26T15:26:08.094Z,100722.25
2022-12-26T15:28:56.879Z,100722.13
2022-12-26T15:31:36.884Z,100724.28
2022-12-26T15:34:32.044Z,100726.66
2022-12-26T15:37:03.299Z,100734.84
2022-12-26T15:39:56.664Z,100740.50
2022-12-26T15:42:48.066Z,100734.00
2022-12-26T15:45:33.697Z,100738.44
2022-12-26T15:48:25.624Z,100738.22
2022-12-26T15:50:58.024Z,100731.94
2022-12-26T15:54:00.342Z,100730.59
2022-12-26T15:56:36.304Z,100721.56
2022-12-26T15:59:09.282Z,100729.25
2022-12-26T16:01:45.621Z,100725.22
2022-12-26T16:04:21.253Z,100711.75
2022-12-26T16:07:22.391Z,100715.22
2022-12-26T16:09:55.323Z,100707.44
2022-12-26T16:12:25.423Z,100702.91
2022-12-26T16:15:25.413Z,100705.31
2022-12-26T16:17:52.594Z,100695.13
2022-12-26T16:20:45.374Z,100704.06
2022-12-26T16:23:16.708Z,100697.59
2022-12-26T16:25:51.624Z,100698.16
2022-12-26T16:28:27.028Z,100699.19
2022-12-26T16:30:54.273Z,100712.41
2022-12-26T16:33:23.570Z,100711.16
2022-12-26T16:35:57.547Z,100702.88
2022-12-26T16:38:32.330Z,100691.31
2022-12-26T16:41:00.970Z,100684.50
2022-12-26T16:43:34.817Z,100687.91
2022-12-26T16:46:06.406Z,100697.44
2022-12-26T16:48:38.413Z,100703.50
2022-12-26T16:51:13.789Z,100711.47
2022-12-26T16:53:40.923Z,100721.84
2022-12-26T16:56:28.473Z,100720.12
2022-12-26T16:59:06.196Z,100713.81
2022-12-26T17:01:34.849Z,100708.66
2022-12-26T17:04:17.513Z,100712.22
2022-12-26T17:06:51.621Z,100718.44
2022-12-26T17:09:19.481Z,100719.19
2022-12-26T17:12:03.029Z,100712.09
2022-12-26T17:14:37.654Z,100708.56
2022-12-26T17:17:28.009Z,100709.47
2022-12-26T17:19:57.713Z,100707.84
2022-12-26T17:22:32.172Z,100707.00
2022-12-26T17:25:17.859Z,100704.31
2022-12-26T17:27:45.842Z,100698.16
2022-12-26T17:30:29.747Z,100705.41
2022-12-26T17:33:03.201Z,100707.94
2022-12-26T17:36:21.287Z,100708.72
2022-12-26T17:38:26.462Z,100703.53
2022-12-26T17:41:04.783Z,100700.09
2022-12-26T17:43:39.522Z,100697.53
2022-12-26T17:46:09.453Z,100693.81
2022-12-26T17:48:36.461Z,100685.16
2022-12-26T17:51:09.356Z,100685.16
2022-12-26T17:53:42.226Z,100686.97
2022-12-26T17:56:18.197Z,100681.75
2022-12-26T17:58:45.312Z,100677.37
2022-12-26T18:01:17.449Z,100673.81
2022-12-26T18:03:47.535Z,100670.16
2022-12-26T18:06:17.278Z,100672.13
2022-12-26T18:08:44.801Z,100667.72
2022-12-26T18:11:13.621Z,100668.63
2022-12-26T18:13:41.094Z,100666.75
2022-12-26T18:16:10.855Z,100660.47
2022-12-26T18:18:43.584Z,100670.22
2022-12-26T18:21:13.011Z,100672.13
2022-12-26T18:23:41.033Z,100673.88
2022-12-26T18:26:17.900Z,100676.53
2022-12-26T18:28:45.617Z,100678.22
2022-12-26T18:31:16.847Z,100681.72
2022-12-26T18:33:44.117Z,100678.19
2022-12-26T18:36:17.320Z,100680.00
2022-12-26T18:38:44.498Z,100680.78
2022-12-26T18:41:20.116Z,100681.66
2022-12-26T18:43:48.044Z,100687.81
2022-12-26T18:46:23.921Z,100687.84
2022-12-26T18:48:54.135Z,100686.06
2022-12-26T18:51:21.991Z,100682.53
2022-12-26T18:53:49.102Z,100679.06
2022-12-26T18:56:19.233Z,100685.06
2022-12-26T18:58:51.127Z,100682.47
2022-12-26T19:01:21.337Z,100684.25
2022-12-26T19:03:49.830Z,100679.91
2022-12-26T19:06:25.946Z,100681.66
2022-12-26T19:08:53.049Z,100682.47
2022-12-26T19:11:20.069Z,100673.81
2022-12-26T19:13:47.128Z,100678.22
2022-12-26T19:16:14.170Z,100676.41
2022-12-26T19:18:41.155Z,100697.44
2022-12-26T19:21:13.388Z,100702.66
2022-12-26T19:23:40.886Z,100695.69
2022-12-26T19:26:17.364Z,100690.47
2022-12-26T19:28:45.343Z,100691.25
2022-12-26T19:31:15.609Z,100700.91
2022-12-26T19:33:43.007Z,100700.00
2022-12-26T19:36:10.877Z,100702.66
2022-12-26T19:38:38.296Z,100713.12
2022-12-26T19:41:07.953Z,100722.66
2022-12-26T19:43:34.857Z,100727.84
2022-12-26T19:46:03.856Z,100738.34
2022-12-26T19:48:32.835Z,100756.59
2022-12-26T19:51:11.614Z,100756.53
2022-12-26T19:53:40.426Z,100758.38
2022-12-26T19:56:17.277Z,100757.59
2022-12-26T19:58:45.119Z,100760.88
2022-12-26T20:01:16.527Z,100768.84
2022-12-26T20:03:44.998Z,100767.22
2022-12-26T20:06:18.052Z,100781.25
2022-12-26T20:08:46.562Z,100784.75
2022-12-26T20:11:17.485Z,100778.56
2022-12-26T20:13:45.938Z,100776.88
2022-12-26T20:16:45.963Z,100785.59
2022-12-26T20:19:06.067Z,100796.09
2022-12-26T20:21:33.272Z,100803.94
2022-12-26T20:24:03.047Z,100802.09
2022-12-26T20:26:30.262Z,100780.06
2022-12-26T20:29:03.471Z,100754.53
2022-12-26T20:31:32.949Z,100785.63
2022-12-26T20:34:00.984Z,100774.34
2022-12-26T20:36:34.231Z,100771.00
2022-12-26T20:39:05.268Z,100767.12
2022-12-26T20:41:34.583Z,100764.94
2022-12-26T20:44:01.671Z,100768.56
2022-12-26T20:46:36.099Z,100778.81
2022-12-26T20:49:04.994Z,100779.97
2022-12-26T20:51:37.421Z,100774.22
2022-12-26T20:54:09.238Z,100772.63
2022-12-26T20:56:37.427Z,100777.81
2022-12-26T20:59:05.776Z,100777.84
2022-12-26T21:01:32.926Z,100773.84
